createdAt,value
2017-06-19T13:45:18.949Z,31.31
2017-06-19T13:46:20.387Z,31.58
2017-06-19T13:47:21.830Z,31.75
2017-06-19T13:48:23.290Z,31.67
2017-06-19T13:49:24.727Z,31.75
2017-06-19T13:50:26.175Z,31.85
2017-06-19T13:51:27.611Z,31.77
2017-06-19T13:52:29.050Z,31.45
2017-06-19T13:53:30.496Z,31.27
2017-06-19T13:54:31.943Z,31.36
2017-06-19T13:55:33.380Z,31.53
2017-06-19T13:56:34.834Z,31.75
2017-06-19T13:57:36.268Z,32.00
2017-06-19T13:58:37.714Z,31.87
2017-06-19T13:59:39.157Z,32.44
2017-06-19T14:00:40.607Z,32.88
2017-06-19T14:01:42.053Z,33.43
2017-06-19T14:02:43.485Z,32.95
2017-06-19T14:03:44.926Z,33.17
2017-06-19T14:04:46.371Z,33.30
2017-06-19T14:05:47.805Z,32.62
2017-06-19T14:06:49.247Z,32.18
2017-06-19T14:07:50.685Z,31.60
2017-06-19T14:08:52.127Z,31.40
2017-06-19T14:09:53.567Z,31.21
2017-06-19T14:10:55.005Z,31.04
2017-06-19T14:11:56.444Z,30.96
2017-06-19T14:12:57.884Z,31.06
2017-06-19T14:13:59.333Z,31.12
2017-06-19T14:15:00.777Z,31.11
2017-06-19T14:16:02.212Z,31.09
2017-06-19T14:17:03.653Z,30.84
2017-06-19T14:18:05.091Z,30.75
2017-06-19T14:19:06.531Z,30.78
2017-06-19T14:20:07.971Z,30.89
2017-06-19T14:21:09.420Z,30.87
2017-06-19T14:22:10.855Z,30.84
2017-06-19T14:23:12.296Z,30.91
2017-06-19T14:24:13.740Z,30.84
2017-06-19T14:25:15.188Z,30.84
2017-06-19T14:26:16.628Z,30.78
2017-06-19T14:27:18.072Z,30.89
2017-06-19T14:28:19.505Z,30.90
2017-06-19T14:29:20.949Z,31.02
2017-06-19T14:30:22.390Z,30.99
2017-06-19T14:31:23.841Z,30.80
2017-06-19T14:32:25.281Z,30.75
2017-06-19T14:33:26.720Z,30.62
2017-06-19T14:34:28.162Z,30.71
2017-06-19T14:35:29.597Z,30.74
2017-06-19T14:36:31.042Z,30.76
2017-06-19T14:37:32.480Z,30.65
2017-06-19T14:38:34.843Z,30.64
2017-06-19T14:39:36.282Z,30.57
2017-06-19T14:40:37.718Z,30.59
2017-06-19T14:41:39.157Z,30.47
2017-06-19T14:42:40.601Z,30.47
2017-06-19T14:43:42.085Z,30.49
2017-06-19T14:44:43.528Z,30.54
2017-06-19T14:45:44.983Z,30.53
2017-06-19T14:46:46.422Z,30.80
2017-06-19T14:47:47.868Z,30.81
2017-06-19T14:48:49.311Z,30.71
2017-06-19T14:49:50.757Z,30.74
2017-06-19T14:50:52.189Z,30.81
2017-06-19T14:51:53.627Z,30.83
2017-06-19T14:52:55.064Z,30.78
2017-06-19T14:53:56.521Z,30.78
2017-06-19T14:54:57.957Z,30.74
2017-06-19T14:55:59.399Z,30.71
2017-06-19T14:57:00.836Z,30.76
2017-06-19T14:58:02.278Z,30.80
2017-06-19T14:59:03.720Z,30.74
2017-06-19T15:00:05.156Z,30.78
2017-06-19T15:01:06.607Z,30.72
2017-06-19T15:02:08.048Z,30.75
2017-06-19T15:03:09.488Z,30.74
2017-06-19T15:04:10.931Z,30.78
2017-06-19T15:05:12.373Z,30.90
2017-06-19T15:06:13.812Z,30.72
2017-06-19T15:07:15.258Z,30.78
2017-06-19T15:08:16.699Z,30.74
2017-06-19T15:09:18.140Z,30.78
2017-06-19T15:10:19.581Z,30.84
2017-06-19T15:11:21.025Z,30.76
2017-06-19T15:12:22.458Z,30.69
2017-06-19T15:13:23.896Z,30.57
2017-06-19T15:14:25.337Z,30.76
2017-06-19T15:15:26.791Z,30.78
2017-06-19T15:16:28.231Z,30.78
2017-06-19T15:17:29.668Z,30.72
2017-06-19T15:18:31.122Z,30.71
2017-06-19T15:19:32.559Z,30.78
2017-06-19T15:20:33.996Z,30.72
2017-06-19T15:21:35.444Z,30.74
2017-06-19T15:22:36.883Z,30.76
2017-06-19T15:23:38.319Z,30.83
2017-06-19T15:24:39.767Z,30.81
2017-06-19T15:25:41.208Z,30.84
2017-06-19T15:26:42.650Z,30.78
2017-06-19T15:27:44.090Z,30.81
2017-06-19T15:28:45.535Z,30.75
2017-06-19T15:29:46.964Z,30.65
2017-06-19T15:30:48.413Z,30.71
2017-06-19T15:31:49.862Z,30.71
2017-06-19T15:32:51.297Z,30.71
2017-06-19T15:33:52.732Z,30.75
2017-06-19T15:34:54.177Z,30.74
2017-06-19T15:35:55.612Z,30.65
2017-06-19T15:36:57.053Z,30.59
2017-06-19T15:37:58.496Z,30.38
2017-06-19T15:38:59.940Z,30.46
2017-06-19T15:40:01.375Z,30.43
2017-06-19T15:41:02.819Z,30.27
2017-06-19T15:42:04.260Z,30.34
2017-06-19T15:43:05.698Z,30.38
2017-06-19T15:44:07.134Z,30.31
2017-06-19T15:45:08.576Z,30.05
2017-06-19T15:46:10.017Z,29.94
2017-06-19T15:47:11.450Z,30.08
2017-06-19T15:48:12.889Z,30.26
2017-06-19T15:49:14.327Z,30.29
2017-06-19T15:50:15.763Z,30.23
2017-06-19T15:51:17.197Z,30.15
2017-06-19T15:52:18.641Z,30.02
2017-06-19T15:53:20.079Z,30.00
2017-06-19T15:54:21.518Z,30.02
2017-06-19T15:55:22.960Z,30.09
2017-06-19T15:56:24.393Z,30.24
2017-06-19T15:57:25.834Z,30.15
2017-06-19T15:58:27.282Z,30.27
2017-06-19T15:59:28.709Z,30.16
2017-06-19T16:00:30.148Z,30.16
2017-06-19T16:01:31.591Z,30.15
2017-06-19T16:02:33.046Z,30.12
2017-06-19T16:03:34.492Z,30.03
2017-06-19T16:04:35.929Z,30.15
2017-06-19T16:05:37.360Z,30.18
2017-06-19T16:06:38.806Z,30.08
2017-06-19T16:07:40.246Z,30.14
2017-06-19T16:08:41.692Z,30.16
2017-06-19T16:09:43.149Z,30.14
2017-06-19T16:10:44.590Z,30.15
2017-06-19T16:11:46.031Z,30.23
2017-06-19T16:12:47.467Z,30.21
2017-06-19T16:13:48.911Z,30.24
2017-06-19T16:14:50.350Z,30.33
2017-06-19T16:15:51.787Z,30.29
2017-06-19T16:16:53.230Z,30.26
2017-06-19T16:17:54.669Z,30.24
2017-06-19T16:18:56.102Z,30.30
2017-06-19T16:19:57.535Z,30.16
2017-06-19T16:20:58.974Z,30.14
2017-06-19T16:22:00.416Z,30.09
2017-06-19T16:23:01.861Z,29.97
2017-06-19T16:24:03.302Z,29.99
2017-06-19T16:25:04.759Z,29.89
2017-06-19T16:26:06.194Z,29.90
2017-06-19T16:27:07.641Z,29.87
2017-06-19T16:28:09.079Z,29.94
2017-06-19T16:29:10.522Z,29.94
2017-06-19T16:30:11.965Z,30.14
2017-06-19T16:31:13.404Z,30.18
2017-06-19T16:32:14.844Z,30.12
2017-06-19T16:33:16.279Z,30.18
2017-06-19T16:34:17.718Z,30.19
2017-06-19T16:35:19.157Z,30.16
2017-06-19T16:36:20.602Z,30.23
2017-06-19T16:37:22.042Z,30.21
2017-06-19T16:38:23.477Z,30.18
2017-06-19T16:39:24.929Z,30.11
2017-06-19T16:40:26.369Z,29.79
2017-06-19T16:41:27.807Z,29.89
2017-06-19T16:42:29.244Z,29.86
2017-06-19T16:43:30.689Z,29.71
2017-06-19T16:44:32.119Z,29.68
2017-06-19T16:45:33.579Z,29.79
2017-06-19T16:46:35.021Z,29.71
2017-06-19T16:47:36.459Z,29.81
2017-06-19T16:48:37.900Z,29.72
2017-06-19T16:49:39.326Z,29.78
2017-06-19T16:50:40.774Z,29.82
2017-06-19T16:51:42.211Z,29.66
2017-06-19T16:52:43.662Z,29.70
2017-06-19T16:53:45.093Z,29.70
2017-06-19T16:54:46.538Z,29.72
2017-06-19T16:55:47.974Z,29.66
2017-06-19T16:56:49.411Z,29.62
2017-06-19T16:57:50.843Z,29.62
2017-06-19T16:58:52.286Z,29.59
2017-06-19T16:59:53.719Z,29.52
2017-06-19T17:00:55.171Z,29.52
2017-06-19T17:01:56.625Z,29.53
2017-06-19T17:02:58.060Z,29.52
2017-06-19T17:03:59.496Z,29.47
2017-06-19T17:05:00.934Z,29.57
2017-06-19T17:06:02.369Z,29.71
2017-06-19T17:07:03.848Z,29.74
2017-06-19T17:08:05.280Z,29.74
2017-06-19T17:09:06.715Z,29.59
2017-06-19T17:10:08.145Z,29.55
2017-06-19T17:11:09.585Z,29.57
2017-06-19T17:12:11.022Z,29.55
2017-06-19T17:13:12.452Z,29.47
2017-06-19T17:14:13.903Z,29.57
2017-06-19T17:15:15.332Z,29.68
2017-06-19T17:16:16.771Z,29.53
2017-06-19T17:17:18.211Z,29.49
2017-06-19T17:18:19.663Z,29.45
2017-06-19T17:19:21.088Z,29.52
2017-06-19T17:20:22.522Z,29.56
2017-06-19T17:21:23.989Z,29.41
2017-06-19T17:22:25.428Z,29.41
2017-06-19T17:23:26.870Z,29.45
2017-06-19T17:24:28.310Z,29.38
2017-06-19T17:25:29.750Z,29.34
2017-06-19T17:26:31.189Z,29.29
2017-06-19T17:27:32.620Z,29.31
2017-06-19T17:28:34.068Z,29.35
2017-06-19T17:29:35.502Z,29.25
2017-06-19T17:30:36.938Z,29.25
2017-06-19T17:31:38.387Z,29.26
2017-06-19T17:32:39.825Z,29.20
2017-06-19T17:33:41.257Z,29.15
2017-06-19T17:34:42.700Z,29.16
2017-06-19T17:35:44.135Z,29.19
2017-06-19T17:36:45.580Z,29.28
2017-06-19T17:37:47.016Z,29.10
2017-06-19T17:38:48.454Z,29.16
2017-06-19T17:39:49.900Z,29.20
2017-06-19T17:40:51.355Z,29.19
2017-06-19T17:41:52.798Z,29.25
2017-06-19T17:42:54.235Z,29.28
2017-06-19T17:43:55.681Z,29.19
2017-06-19T17:44:57.132Z,29.26
2017-06-19T17:45:58.569Z,29.23
2017-06-19T17:47:00.010Z,29.20
2017-06-19T17:48:01.450Z,29.16
2017-06-19T17:49:02.889Z,29.11
2017-06-19T17:50:04.329Z,29.10
2017-06-19T17:51:05.769Z,29.11
2017-06-19T17:52:07.212Z,29.08
2017-06-19T17:53:08.663Z,28.95
2017-06-19T17:54:10.098Z,28.91
2017-06-19T17:55:11.548Z,29.03
2017-06-19T17:56:12.986Z,29.00
2017-06-19T17:57:14.426Z,28.96
2017-06-19T17:58:15.866Z,29.00
2017-06-19T17:59:17.305Z,28.73
2017-06-19T18:00:18.747Z,28.70
2017-06-19T18:01:20.201Z,28.69
2017-06-19T18:02:21.724Z,28.66
2017-06-19T18:03:23.171Z,28.68
2017-06-19T18:04:24.624Z,28.72
2017-06-19T18:05:26.083Z,28.66
2017-06-19T18:06:27.527Z,28.56
2017-06-19T18:07:28.960Z,28.58
2017-06-19T18:08:30.398Z,28.38
2017-06-19T18:09:31.845Z,28.41
2017-06-19T18:10:33.278Z,28.53
2017-06-19T18:11:34.719Z,28.65
2017-06-19T18:12:36.154Z,28.66
2017-06-19T18:13:37.601Z,28.43
2017-06-19T18:14:39.039Z,28.25
2017-06-19T18:15:40.484Z,28.38
2017-06-19T18:16:41.924Z,28.25
2017-06-19T18:17:43.355Z,28.13
2017-06-19T18:18:44.797Z,28.17
2017-06-19T18:19:46.251Z,28.11
2017-06-19T18:20:47.719Z,28.03
2017-06-19T18:21:49.167Z,28.03
2017-06-19T18:22:50.600Z,28.10
2017-06-19T18:23:52.030Z,28.16
2017-06-19T18:24:53.481Z,28.09
2017-06-19T18:25:54.920Z,28.14
2017-06-19T18:26:56.359Z,28.13
2017-06-19T18:27:57.799Z,27.88
2017-06-19T18:28:59.244Z,27.91
2017-06-19T18:30:00.691Z,27.95
2017-06-19T18:31:02.136Z,27.82
2017-06-19T18:32:03.570Z,27.84
2017-06-19T18:33:05.010Z,27.79
2017-06-19T18:34:06.447Z,27.76
2017-06-19T18:35:07.892Z,27.66
2017-06-19T18:36:09.343Z,27.69
2017-06-19T18:37:10.786Z,27.69
2017-06-19T18:38:12.226Z,27.62
2017-06-19T18:39:13.689Z,27.70
2017-06-19T18:40:15.126Z,27.74
2017-06-19T18:41:16.563Z,27.70
2017-06-19T18:42:17.997Z,27.71
2017-06-19T18:43:19.431Z,27.69
2017-06-19T18:44:20.869Z,27.61
2017-06-19T18:45:22.311Z,27.66
2017-06-19T18:46:23.794Z,27.57
2017-06-19T18:47:25.235Z,27.51
2017-06-19T18:48:26.675Z,27.47
2017-06-19T18:49:28.144Z,27.42
2017-06-19T18:50:29.589Z,27.33
2017-06-19T18:51:31.032Z,27.39
2017-06-19T18:52:32.469Z,27.21
2017-06-19T18:53:33.909Z,27.32
2017-06-19T18:54:35.347Z,27.24
2017-06-19T18:55:36.791Z,27.26
2017-06-19T18:56:38.225Z,27.21
2017-06-19T18:57:39.667Z,27.17
2017-06-19T18:58:41.109Z,27.20
2017-06-19T18:59:42.544Z,27.09
2017-06-19T19:00:43.996Z,27.06
2017-06-19T19:01:45.442Z,27.01
2017-06-19T19:02:46.883Z,26.98
2017-06-19T19:03:48.327Z,26.94
2017-06-19T19:04:49.776Z,26.91
2017-06-19T19:05:51.220Z,27.05
2017-06-19T19:06:52.659Z,26.87
2017-06-19T19:07:54.098Z,26.81
2017-06-19T19:08:55.547Z,26.73
2017-06-19T19:09:56.998Z,26.65
2017-06-19T19:10:58.426Z,26.59
2017-06-19T19:11:59.936Z,26.65
2017-06-19T19:13:01.393Z,26.50
2017-06-19T19:14:02.816Z,26.22
2017-06-19T19:15:04.256Z,26.12
2017-06-19T19:16:05.706Z,25.99
2017-06-19T19:17:07.147Z,25.99
2017-06-19T19:18:08.575Z,25.94
2017-06-19T19:19:10.022Z,25.83
2017-06-19T19:20:11.457Z,25.89
2017-06-19T19:21:12.892Z,25.93
2017-06-19T19:22:14.334Z,26.02
2017-06-19T19:23:15.802Z,25.99
2017-06-19T19:24:17.252Z,25.98
2017-06-19T19:25:18.686Z,25.99
2017-06-19T19:26:20.129Z,25.98
2017-06-19T19:27:21.567Z,25.93
2017-06-19T19:28:23.002Z,25.98
2017-06-19T19:29:24.462Z,25.90
2017-06-19T19:30:26.874Z,25.86
2017-06-19T19:31:28.322Z,25.82
2017-06-19T19:32:29.744Z,25.89
2017-06-19T19:33:31.175Z,25.84
2017-06-19T19:34:32.612Z,25.67
2017-06-19T19:35:34.047Z,25.68
2017-06-19T19:36:35.495Z,25.56
2017-06-19T19:37:36.931Z,25.54
2017-06-19T19:38:38.412Z,25.56
2017-06-19T19:39:39.868Z,25.32
2017-06-19T19:40:41.304Z,25.28
2017-06-19T19:41:42.740Z,25.34
2017-06-19T19:42:44.173Z,25.24
2017-06-19T19:43:45.608Z,25.10
2017-06-19T19:44:47.049Z,25.16
2017-06-19T19:45:48.490Z,25.02
2017-06-19T19:46:49.994Z,24.88
2017-06-19T19:47:51.430Z,24.85
2017-06-19T19:48:52.863Z,24.98
2017-06-19T19:49:54.299Z,24.98
2017-06-19T19:50:55.784Z,24.91
2017-06-19T19:51:57.229Z,25.01
2017-06-19T19:52:58.661Z,24.92
2017-06-19T19:54:00.095Z,24.95
2017-06-19T19:55:01.541Z,24.95
2017-06-19T19:56:02.967Z,24.85
2017-06-19T19:57:04.401Z,24.77
2017-06-19T19:58:05.845Z,24.76
2017-06-19T19:59:07.274Z,24.69
2017-06-19T20:00:08.708Z,24.60
2017-06-19T20:01:10.149Z,24.61
2017-06-19T20:02:11.592Z,24.50
2017-06-19T20:03:13.024Z,24.49
2017-06-19T20:04:14.452Z,24.47
2017-06-19T20:05:15.895Z,24.52
2017-06-19T20:06:17.331Z,24.49
2017-06-19T20:07:18.770Z,24.52
2017-06-19T20:08:20.203Z,24.49
2017-06-19T20:09:21.765Z,24.53
2017-06-19T20:10:23.197Z,24.44
2017-06-19T20:11:24.632Z,24.45
2017-06-19T20:12:26.079Z,24.45
2017-06-19T20:13:27.515Z,24.38
2017-06-19T20:14:28.950Z,24.45
2017-06-19T20:15:30.384Z,24.42
2017-06-19T20:16:31.828Z,24.42
2017-06-19T20:17:33.265Z,24.39
2017-06-19T20:18:34.687Z,24.32
2017-06-19T20:19:36.118Z,24.23
2017-06-19T20:20:37.553Z,24.19
2017-06-19T20:21:38.985Z,24.24
2017-06-19T20:22:40.415Z,24.31
2017-06-19T20:23:41.859Z,24.26
2017-06-19T20:24:43.287Z,24.17
2017-06-19T20:25:44.722Z,24.22
2017-06-19T20:26:46.239Z,23.97
2017-06-19T20:27:47.678Z,23.85
2017-06-19T20:28:49.121Z,23.76
2017-06-19T20:29:50.565Z,23.70
2017-06-19T20:30:51.997Z,23.64
2017-06-19T20:31:53.438Z,23.65
2017-06-19T20:32:54.864Z,23.64
2017-06-19T20:33:56.289Z,23.70
2017-06-19T20:34:57.772Z,23.70
2017-06-19T20:35:59.222Z,23.53
2017-06-19T20:37:00.660Z,23.38
2017-06-19T20:38:02.117Z,23.32
2017-06-19T20:39:03.564Z,23.26
2017-06-19T20:40:05.001Z,23.09
2017-06-19T20:41:06.433Z,23.01
2017-06-19T20:42:07.898Z,23.20
2017-06-19T20:43:09.326Z,22.83
2017-06-19T20:44:10.757Z,22.92
2017-06-19T20:45:12.266Z,23.07
2017-06-19T20:46:13.703Z,23.09
2017-06-19T20:47:15.145Z,23.05
2017-06-19T20:48:16.585Z,22.97
2017-06-19T20:49:18.024Z,23.09
2017-06-19T20:50:19.461Z,23.11
2017-06-19T20:51:20.885Z,23.19
2017-06-19T20:52:22.329Z,23.07
2017-06-19T20:53:23.787Z,23.12
2017-06-19T20:54:25.223Z,23.17
2017-06-19T20:55:26.664Z,23.26
2017-06-19T20:56:28.095Z,23.19
2017-06-19T20:57:29.529Z,23.07
2017-06-19T20:58:30.959Z,22.96
2017-06-19T20:59:32.390Z,23.01
2017-06-19T21:00:33.835Z,23.09
2017-06-19T21:01:35.285Z,22.94
2017-06-19T21:02:36.716Z,22.94
2017-06-19T21:03:38.152Z,23.04
2017-06-19T21:04:39.594Z,22.94
2017-06-19T21:05:41.030Z,22.92
2017-06-19T21:06:42.453Z,23.02
2017-06-19T21:07:43.897Z,22.97
2017-06-19T21:08:45.336Z,23.01
2017-06-19T21:09:46.777Z,22.82
2017-06-19T21:10:51.457Z,22.72
2017-06-19T21:11:53.795Z,22.75
2017-06-19T21:12:55.990Z,22.77
2017-06-19T21:13:58.183Z,22.74
2017-06-19T21:14:59.625Z,22.69
2017-06-19T21:16:01.734Z,22.75
2017-06-19T21:17:03.789Z,22.72
2017-06-19T21:18:05.977Z,22.80
2017-06-19T21:19:07.955Z,22.82
2017-06-19T21:20:09.968Z,22.87
2017-06-19T21:21:12.021Z,22.92
2017-06-19T21:22:14.423Z,22.86
2017-06-19T21:23:15.853Z,22.86
2017-06-19T21:24:18.265Z,22.87
2017-06-19T21:25:19.707Z,22.74
2017-06-19T21:26:21.701Z,22.92
2017-06-19T21:27:23.754Z,22.78
2017-06-19T21:28:25.739Z,22.64
2017-06-19T21:29:27.711Z,22.57
2017-06-19T21:30:29.925Z,22.59
2017-06-19T21:31:32.074Z,22.49
2017-06-19T21:32:34.281Z,22.56
2017-06-19T21:33:36.541Z,22.29
2017-06-19T21:34:38.743Z,22.29
2017-06-19T21:35:40.188Z,22.27
2017-06-19T21:36:42.372Z,22.25
2017-06-19T21:37:44.398Z,22.28
2017-06-19T21:38:46.483Z,22.32
2017-06-19T21:39:48.502Z,22.28
2017-06-19T21:40:50.871Z,22.25
2017-06-19T21:41:53.107Z,22.38
2017-06-19T21:42:54.572Z,22.39
2017-06-19T21:43:56.742Z,22.38
2017-06-19T21:44:58.901Z,22.27
2017-06-19T21:46:01.052Z,22.34
2017-06-19T21:47:02.485Z,22.37
2017-06-19T21:48:04.783Z,22.46
2017-06-19T21:49:06.917Z,22.44
2017-06-19T21:50:08.994Z,22.25
2017-06-19T21:51:11.053Z,22.31
2017-06-19T21:52:13.032Z,22.34
2017-06-19T21:53:15.448Z,22.43
2017-06-19T21:54:17.791Z,22.39
2017-06-19T21:55:19.227Z,22.39
2017-06-19T21:56:21.384Z,22.43
2017-06-19T21:57:23.485Z,22.38
2017-06-19T21:58:25.540Z,22.27
2017-06-19T21:59:27.553Z,22.04
2017-06-19T22:00:29.607Z,21.82
2017-06-19T22:01:31.760Z,21.78
2017-06-19T22:02:33.203Z,21.63
2017-06-19T22:03:35.501Z,21.63
2017-06-19T22:04:37.724Z,21.60
2017-06-19T22:05:39.158Z,21.64
2017-06-19T22:06:41.575Z,21.46
2017-06-19T22:07:43.942Z,21.45
2017-06-19T22:08:46.255Z,21.53
2017-06-19T22:09:47.693Z,21.57
2017-06-19T22:10:49.603Z,21.54
2017-06-19T22:11:51.571Z,21.51
2017-06-19T22:12:53.572Z,21.42
2017-06-19T22:13:55.573Z,21.46
2017-06-19T22:14:57.773Z,21.54
2017-06-19T22:15:59.210Z,21.46
2017-06-19T22:17:01.515Z,21.48
2017-06-19T22:18:03.834Z,21.42
2017-06-19T22:19:05.275Z,21.42
2017-06-19T22:20:06.708Z,21.67
2017-06-19T22:21:09.012Z,21.67
2017-06-19T22:22:11.334Z,21.74
2017-06-19T22:23:12.771Z,21.76
2017-06-19T22:24:15.073Z,21.64
2017-06-19T22:25:16.506Z,21.75
2017-06-19T22:26:18.544Z,21.60
2017-06-19T22:27:19.976Z,21.57
2017-06-19T22:28:22.214Z,21.46
2017-06-19T22:29:24.583Z,21.45
2017-06-19T22:30:26.017Z,21.51
2017-06-19T22:31:27.989Z,21.66
2017-06-19T22:32:30.026Z,21.66
2017-06-19T22:33:32.395Z,21.67
2017-06-19T22:34:33.833Z,21.72
2017-06-19T22:35:35.909Z,21.64
2017-06-19T22:36:38.083Z,21.57
2017-06-19T22:37:40.249Z,21.54
2017-06-19T22:38:41.690Z,21.45
2017-06-19T22:39:43.951Z,21.51
2017-06-19T22:40:46.087Z,21.45
2017-06-19T22:41:48.234Z,21.30
2017-06-19T22:42:50.311Z,21.14
2017-06-19T22:43:52.346Z,21.24
2017-06-19T22:44:54.595Z,21.44
2017-06-19T22:45:56.636Z,21.27
2017-06-19T22:46:58.788Z,21.17
2017-06-19T22:48:00.230Z,20.95
2017-06-19T22:49:02.310Z,20.74
2017-06-19T22:50:04.728Z,20.50
2017-06-19T22:51:07.092Z,20.54
2017-06-19T22:52:09.286Z,20.50
2017-06-19T22:53:10.722Z,20.62
2017-06-19T22:54:12.721Z,20.89
2017-06-19T22:55:14.762Z,21.16
2017-06-19T22:56:17.143Z,20.84
2017-06-19T22:57:19.461Z,20.81
2017-06-19T22:58:20.898Z,20.64
2017-06-19T22:59:22.941Z,20.64
2017-06-19T23:00:25.004Z,20.71
2017-06-19T23:01:27.295Z,20.51
2017-06-19T23:02:28.724Z,20.51
2017-06-19T23:03:31.094Z,20.68
2017-06-19T23:04:32.526Z,20.61
2017-06-19T23:05:34.598Z,20.51
2017-06-19T23:06:36.763Z,20.69
2017-06-19T23:07:38.201Z,20.86
2017-06-19T23:08:40.275Z,20.95
2017-06-19T23:09:41.707Z,20.99
2017-06-19T23:10:44.075Z,21.01
2017-06-19T23:11:45.532Z,20.87
2017-06-19T23:12:47.602Z,20.89
2017-06-19T23:13:49.641Z,20.77
2017-06-19T23:14:51.803Z,20.74
2017-06-19T23:15:53.237Z,20.87
2017-06-19T23:16:55.386Z,20.65
2017-06-19T23:17:57.598Z,20.68
2017-06-19T23:18:59.665Z,20.49
2017-06-19T23:20:01.840Z,20.72
2017-06-19T23:21:03.275Z,20.65
2017-06-19T23:22:05.475Z,20.66
2017-06-19T23:23:06.910Z,20.72
2017-06-19T23:24:08.893Z,20.87
2017-06-19T23:25:10.870Z,20.84
2017-06-19T23:26:13.288Z,20.84
2017-06-19T23:27:15.140Z,20.77
2017-06-19T23:28:17.336Z,20.83
2017-06-19T23:29:18.768Z,20.80
2017-06-19T23:30:20.852Z,20.72
2017-06-19T23:31:22.295Z,20.76
2017-06-19T23:32:24.609Z,20.59
2017-06-19T23:33:26.045Z,20.49
2017-06-19T23:34:28.167Z,20.24
2017-06-19T23:35:29.601Z,20.10
2017-06-19T23:36:31.915Z,20.06
2017-06-19T23:37:34.184Z,20.05
2017-06-19T23:38:35.616Z,19.94
2017-06-19T23:39:37.587Z,19.79
2017-06-19T23:40:39.618Z,19.65
2017-06-19T23:41:41.665Z,19.46
2017-06-19T23:42:43.665Z,19.55
2017-06-19T23:43:45.622Z,19.57
2017-06-19T23:44:47.630Z,19.48
2017-06-19T23:45:49.601Z,19.46
2017-06-19T23:46:52.022Z,19.38
2017-06-19T23:47:54.398Z,19.46
2017-06-19T23:48:55.828Z,19.68
2017-06-19T23:49:57.901Z,19.83
2017-06-19T23:50:59.345Z,19.98
2017-06-19T23:52:01.410Z,20.20
2017-06-19T23:53:03.527Z,19.93
2017-06-19T23:54:05.705Z,19.87
2017-06-19T23:55:07.134Z,19.66
2017-06-19T23:56:09.201Z,19.61
2017-06-19T23:57:11.224Z,19.63
2017-06-19T23:58:13.205Z,19.88
2017-06-19T23:59:15.228Z,20.09
